Historyczne dane pomiarowe

Dodano dane terminowe – wersja testowa.

Dane z okresu 1951-2019

Wersja bazy: 1.34 [2019-03-16, lista zmian], aktualizacja planowana na 2019-04-15

Dane meteo z obszaru Polski uzyskane na podstawie danych udostępnionych przez Instytut Meteorologii i Gospodarki Wodnej – Państwowy Instytut Badawczy.

 

Wybierz Datę:    

       

TemperaturaWilgotnośćZachmurzenieWiatrCiśnienieWidzialnośćZjawiska
 Data    tng td wb rh cc ccl cl cm ch dir g1 g2 mslp ppp      
1999-07-23 00:00:00 10.0--- 9.3 9.695wxwxwx0wx--1012.3 989.9 0.0---wx
1999-07-23 01:00:00 10.0--- 9.3 9.695wxwxwx0wx--1012.3 989.9----wx
1999-07-23 02:00:00 9.2--- 8.6 8.996wxwxwx0wx--1012.4 989.9----wx
1999-07-23 03:00:00 8.9--- 8.5 8.797wxwxwxwx0wx--1012.7 990.2----wx
1999-07-23 04:00:00 10.0--- 9.3 9.695wxwxwxwx0wx--1012.8 990.4----wx
1999-07-23 05:00:00 14.4--- 12.7 13.490wxwxwxwx0wx--1012.4 990.3----wx
1999-07-23 06:00:00 16.4--- 13.0 14.481wxwxwxwx1wx--1012.4 990.5 0.0---wx
1999-07-23 07:00:00 18.4--- 12.7 15.069wxwxwxwx1wx--1012.6 990.8----wx
1999-07-23 08:00:00 19.8--- 12.5 15.463wxwxwxwx2wx--1012.7 991.0----wx
1999-07-23 09:00:00 20.2--- 12.2 15.460wxwxwxwx3wx--1012.9 991.2----wx
1999-07-23 10:00:00 20.6--- 11.9 15.457wxwxwxwx3wx--1012.9 991.3----wx
1999-07-23 11:00:00 20.6--- 10.7 14.853wxwxwxwx4wx--1012.9 991.3----wx
1999-07-23 12:00:00 21.2--- 11.0 15.252wxwxwxwx3wx--1012.9 991.3 0.0---wx
1999-07-23 13:00:00 20.6--- 11.9 15.457wxwxwxwx4wx--1013.1 991.5----wx
1999-07-23 14:00:00 20.3--- 11.1 14.955wxwxwxwx3wx--1013.2 991.5----wx
1999-07-23 15:00:00 20.3--- 11.5 15.157wxwxwx2wx--1013.2 991.5----wx
1999-07-23 16:00:00 19.0--- 10.3 14.057wxwxwx2wx--1013.3 991.5----wx
1999-07-23 17:00:00 19.8--- 11.7 15.060wxwxwx2wx--1013.5 991.8----wx
1999-07-23 18:00:00 19.2--- 13.3 15.668wxwxwxwx2wx--1013.6 991.9 0.0---wx
1999-07-23 19:00:00 17.6--- 13.3 15.076wxwxwxwx1wx--1014.2 992.3----wx
1999-07-23 20:00:00 16.8--- 13.7 14.982wxwxwxwx1wx--1014.6 992.7----wx
1999-07-23 21:00:00 15.4--- 13.0 14.086wxwxwxwx1wx--1015.1 993.0----wx
1999-07-23 22:00:00 15.4--- 13.4 14.288wxwxwxwx1wx--1015.0 992.9----wx
1999-07-23 23:00:00 15.0--- 13.3 14.090wxwxwxwx0wx--1015.0 992.9----wx

 

Źródłem pochodzenia danych jest Instytut Meteorologii i Gospodarki Wodnej – Państwowy Instytut Badawczy. Dane Instytutu Meteorologii i Gospodarki Wodnej – Państwowego Instytutu Badawczego zostały przetworzone.

Dane źródłowe można odnaleźć na stronie https://dane.imgw.pl